createdAt,value
2023-02-27T00:00:31.569Z,20.10
2023-02-27T00:02:59.801Z,20.00
2023-02-27T00:05:27.981Z,19.90
2023-02-27T00:07:56.098Z,19.90
2023-02-27T00:10:24.301Z,19.90
2023-02-27T00:12:53.779Z,19.90
2023-02-27T00:15:22.646Z,19.80
2023-02-27T00:17:50.769Z,19.80
2023-02-27T00:20:20.364Z,19.80
2023-02-27T00:22:48.546Z,19.90
2023-02-27T00:25:16.967Z,19.90
2023-02-27T00:27:45.191Z,19.80
2023-02-27T00:30:16.708Z,19.80
2023-02-27T00:32:45.037Z,19.80
2023-02-27T00:35:13.770Z,19.70
2023-02-27T00:37:42.131Z,19.70
2023-02-27T00:40:11.597Z,19.70
2023-02-27T00:42:40.015Z,19.70
2023-02-27T00:45:09.348Z,19.60
2023-02-27T00:47:38.825Z,19.60
2023-02-27T00:50:07.370Z,19.60
2023-02-27T00:52:35.422Z,19.60
2023-02-27T00:55:03.539Z,19.50
2023-02-27T00:57:31.675Z,19.50
2023-02-27T00:59:59.780Z,19.50
2023-02-27T01:02:28.089Z,19.50
2023-02-27T01:04:57.571Z,19.40
2023-02-27T01:07:25.886Z,19.40
2023-02-27T01:09:54.030Z,19.40
2023-02-27T01:12:22.094Z,19.40
2023-02-27T01:14:50.212Z,19.30
2023-02-27T01:17:18.287Z,19.30
2023-02-27T01:19:46.347Z,19.20
2023-02-27T01:22:15.778Z,19.20
2023-02-27T01:24:44.028Z,19.20
2023-02-27T01:27:12.081Z,19.20
2023-02-27T01:29:40.250Z,19.20
2023-02-27T01:32:08.433Z,19.20
2023-02-27T01:34:36.837Z,19.20
2023-02-27T01:37:04.917Z,19.20
2023-02-27T01:39:34.517Z,19.10
2023-02-27T01:42:02.729Z,19.10
2023-02-27T01:44:32.688Z,19.10
2023-02-27T01:47:00.515Z,19.00
2023-02-27T01:49:32.690Z,19.00
2023-02-27T01:52:07.501Z,19.00
2023-02-27T01:54:39.568Z,19.00
2023-02-27T01:57:08.981Z,19.00
2023-02-27T01:59:39.967Z,18.90
2023-02-27T02:02:15.661Z,18.90
2023-02-27T02:04:46.375Z,18.90
2023-02-27T02:07:18.059Z,18.90
2023-02-27T02:09:51.443Z,18.90
2023-02-27T02:12:22.299Z,18.90
2023-02-27T02:14:50.377Z,18.80
2023-02-27T02:17:30.535Z,18.80
2023-02-27T02:20:29.809Z,18.80
2023-02-27T02:23:22.971Z,18.70
2023-02-27T02:26:33.575Z,18.70
2023-02-27T02:29:44.385Z,18.60
2023-02-27T02:32:51.014Z,18.60
2023-02-27T02:35:55.264Z,18.60
2023-02-27T02:38:53.485Z,18.50
2023-02-27T02:41:33.795Z,18.60
2023-02-27T02:44:08.883Z,18.50
2023-02-27T02:46:43.184Z,18.50
2023-02-27T02:49:20.496Z,18.50
2023-02-27T02:51:54.533Z,18.50
2023-02-27T02:54:29.757Z,18.50
2023-02-27T02:57:04.584Z,18.50
2023-02-27T02:59:38.971Z,18.50
2023-02-27T03:02:10.598Z,18.40
2023-02-27T03:04:43.150Z,18.40
2023-02-27T03:07:16.875Z,18.30
2023-02-27T03:09:49.954Z,18.40
2023-02-27T03:12:24.005Z,18.30
2023-02-27T03:14:55.421Z,18.30
2023-02-27T03:17:28.841Z,18.20
2023-02-27T03:20:00.362Z,18.20
2023-02-27T03:22:32.502Z,18.20
2023-02-27T03:25:05.139Z,18.20
2023-02-27T03:27:38.164Z,18.20
2023-02-27T03:30:11.582Z,18.10
2023-02-27T03:32:45.933Z,18.10
2023-02-27T03:35:14.582Z,18.10
2023-02-27T03:37:52.546Z,18.10
2023-02-27T03:40:28.671Z,18.00
2023-02-27T03:43:03.685Z,18.00
2023-02-27T03:45:38.991Z,18.00
2023-02-27T03:48:09.086Z,18.00
2023-02-27T03:50:38.182Z,18.00
2023-02-27T03:53:12.698Z,18.00
2023-02-27T03:55:46.825Z,18.00
2023-02-27T03:58:15.577Z,18.00
2023-02-27T04:00:44.108Z,17.90
2023-02-27T04:03:12.891Z,17.90
2023-02-27T04:05:41.026Z,17.90
2023-02-27T04:08:36.985Z,17.90
2023-02-27T04:11:34.666Z,17.80
2023-02-27T04:14:25.392Z,17.80
2023-02-27T04:17:04.822Z,17.70
2023-02-27T04:19:56.683Z,17.70
2023-02-27T04:22:34.029Z,17.70
2023-02-27T04:25:15.097Z,17.70
2023-02-27T04:27:54.056Z,17.60
2023-02-27T04:30:29.431Z,17.60
2023-02-27T04:33:04.400Z,17.60
2023-02-27T04:35:37.933Z,17.50
2023-02-27T04:38:12.649Z,17.60
2023-02-27T04:40:47.126Z,17.60
2023-02-27T04:43:17.685Z,17.30
2023-02-27T04:45:47.707Z,17.90
2023-02-27T04:48:19.237Z,17.50
2023-02-27T04:50:52.950Z,18.00
2023-02-27T04:53:25.271Z,17.50
2023-02-27T04:55:56.346Z,17.80
2023-02-27T04:58:30.746Z,18.30
2023-02-27T05:01:03.834Z,17.70
2023-02-27T05:03:35.556Z,18.10
2023-02-27T05:06:04.266Z,18.10
2023-02-27T05:08:40.043Z,18.20
2023-02-27T05:11:13.122Z,18.00
2023-02-27T05:13:47.644Z,17.60
2023-02-27T05:16:22.924Z,18.00
2023-02-27T05:18:51.624Z,17.70
2023-02-27T05:21:27.220Z,18.20
2023-02-27T05:24:09.580Z,18.20
2023-02-27T05:29:26.034Z,17.90
2023-02-27T05:32:05.139Z,18.20
2023-02-27T05:37:11.574Z,17.60
2023-02-27T05:39:42.279Z,17.30
2023-02-27T05:42:15.510Z,17.00
2023-02-27T05:44:51.628Z,17.20
2023-02-27T05:47:23.848Z,17.40
2023-02-27T05:49:55.129Z,17.50
2023-02-27T05:52:26.141Z,17.70
2023-02-27T05:55:00.592Z,17.80
2023-02-27T05:57:34.952Z,17.60
2023-02-27T06:00:11.589Z,17.00
2023-02-27T06:02:40.062Z,16.60
2023-02-27T06:05:09.026Z,16.40
2023-02-27T06:07:38.022Z,16.20
2023-02-27T06:10:07.865Z,16.60
2023-02-27T06:12:35.947Z,16.90
2023-02-27T06:15:05.812Z,17.10
2023-02-27T06:17:33.930Z,17.30
2023-02-27T06:20:02.035Z,17.40
2023-02-27T06:22:30.125Z,17.50
2023-02-27T06:24:58.283Z,17.50
2023-02-27T06:27:26.835Z,17.60
2023-02-27T06:29:55.021Z,17.60
2023-02-27T06:32:25.661Z,17.70
2023-02-27T06:34:54.352Z,17.70
2023-02-27T06:37:22.813Z,17.70
2023-02-27T06:39:50.950Z,17.80
2023-02-27T06:42:19.552Z,17.80
2023-02-27T06:44:47.635Z,17.90
2023-02-27T06:47:16.019Z,17.90
2023-02-27T06:49:45.513Z,17.60
2023-02-27T06:52:13.627Z,17.20
2023-02-27T06:54:41.720Z,17.10
2023-02-27T06:57:09.792Z,16.90
2023-02-27T06:59:37.887Z,16.70
2023-02-27T07:02:05.960Z,16.80
2023-02-27T07:04:34.571Z,17.00
2023-02-27T07:07:34.419Z,17.30
2023-02-27T07:09:52.155Z,17.40
2023-02-27T07:12:20.211Z,17.50
2023-02-27T07:14:48.288Z,17.70
2023-02-27T07:17:16.339Z,17.80
2023-02-27T07:19:45.505Z,17.80
2023-02-27T07:22:14.941Z,18.00
2023-02-27T07:24:43.109Z,18.00
2023-02-27T07:27:11.178Z,18.10
2023-02-27T07:29:39.281Z,18.20
2023-02-27T07:32:07.446Z,18.30
2023-02-27T07:34:35.855Z,18.50
2023-02-27T07:37:04.052Z,18.60
2023-02-27T07:39:33.534Z,18.70
2023-02-27T07:42:01.597Z,18.80
2023-02-27T07:44:29.669Z,19.00
2023-02-27T07:46:57.817Z,19.10
2023-02-27T07:49:26.065Z,19.30
2023-02-27T07:51:54.229Z,19.40
2023-02-27T07:54:22.298Z,19.50
2023-02-27T07:56:51.743Z,19.70
2023-02-27T07:59:19.801Z,19.80
2023-02-27T08:01:47.881Z,20.00
2023-02-27T08:04:15.997Z,20.10
2023-02-27T08:06:44.127Z,20.30
2023-02-27T08:09:12.201Z,20.50
2023-02-27T08:11:40.380Z,20.60
2023-02-27T08:14:09.851Z,20.80
2023-02-27T08:16:37.994Z,21.00
2023-02-27T08:19:06.099Z,21.10
2023-02-27T08:24:02.639Z,21.50
2023-02-27T08:26:31.334Z,21.50
2023-02-27T08:28:59.582Z,21.40
2023-02-27T08:31:29.345Z,20.30
2023-02-27T08:34:07.950Z,20.40
2023-02-27T08:49:01.537Z,19.70
2023-02-27T08:51:29.879Z,19.60
2023-02-27T08:56:29.919Z,20.50
2023-02-27T09:03:59.387Z,21.00
2023-02-27T09:06:28.395Z,20.80
2023-02-27T09:08:56.884Z,21.00
2023-02-27T09:11:25.691Z,21.20
2023-02-27T09:13:54.105Z,21.40
2023-02-27T09:16:23.328Z,21.70
2023-02-27T09:18:51.841Z,21.90
2023-02-27T09:21:22.683Z,22.10
2023-02-27T09:23:50.750Z,21.90
2023-02-27T09:26:18.949Z,21.80
2023-02-27T09:28:47.033Z,21.70
2023-02-27T09:31:15.204Z,21.80
2023-02-27T09:33:44.375Z,21.80
2023-02-27T09:36:12.900Z,21.80
2023-02-27T09:38:42.403Z,22.00
2023-02-27T09:41:43.174Z,22.30
2023-02-27T09:44:33.406Z,22.70
2023-02-27T09:47:14.206Z,23.10
2023-02-27T09:50:00.195Z,23.30
2023-02-27T09:52:30.652Z,23.60
2023-02-27T09:55:00.564Z,24.20
2023-02-27T09:57:32.787Z,24.90
2023-02-27T10:00:07.151Z,25.50
2023-02-27T10:02:45.511Z,25.40
2023-02-27T10:05:24.721Z,24.70
2023-02-27T10:08:01.097Z,23.50
2023-02-27T10:10:39.333Z,22.50
2023-02-27T10:13:31.516Z,22.20
2023-02-27T10:16:01.422Z,22.20
2023-02-27T10:18:31.687Z,22.10
2023-02-27T10:21:03.871Z,22.10
2023-02-27T10:23:38.618Z,22.00
2023-02-27T10:26:14.948Z,21.90
2023-02-27T10:28:43.057Z,21.90
2023-02-27T10:31:21.138Z,21.70
2023-02-27T10:33:49.714Z,21.80
2023-02-27T10:36:33.112Z,21.90
2023-02-27T10:39:07.066Z,22.90
2023-02-27T10:41:36.971Z,23.90
2023-02-27T10:44:05.088Z,24.40
2023-02-27T10:46:36.562Z,24.70
2023-02-27T10:49:16.401Z,24.90
2023-02-27T10:51:47.148Z,25.40
2023-02-27T10:54:21.464Z,24.60
2023-02-27T10:56:53.628Z,24.10
2023-02-27T10:59:24.854Z,23.60
2023-02-27T11:01:56.193Z,23.90
2023-02-27T11:04:31.571Z,23.70
2023-02-27T11:07:01.379Z,23.70
2023-02-27T11:09:32.542Z,23.70
2023-02-27T11:12:20.008Z,23.80
2023-02-27T11:14:54.203Z,23.90
2023-02-27T11:17:24.942Z,24.00
2023-02-27T11:19:53.060Z,24.20
2023-02-27T11:22:24.199Z,24.40
2023-02-27T11:24:53.295Z,24.50
2023-02-27T11:27:26.681Z,24.40
2023-02-27T11:29:59.484Z,24.90
2023-02-27T11:32:32.789Z,24.90
2023-02-27T11:35:00.932Z,24.90
2023-02-27T11:37:33.667Z,25.00
2023-02-27T11:40:14.253Z,25.40
2023-02-27T11:42:46.988Z,26.30
2023-02-27T11:46:08.637Z,27.20
2023-02-27T11:48:22.188Z,28.20
2023-02-27T11:51:12.585Z,28.70
2023-02-27T11:54:09.556Z,29.60
2023-02-27T11:56:39.962Z,31.10
2023-02-27T11:59:32.881Z,32.40
2023-02-27T12:02:05.866Z,31.90
2023-02-27T12:04:44.352Z,30.70
2023-02-27T12:07:22.101Z,29.60
2023-02-27T12:09:59.095Z,29.00
2023-02-27T12:12:33.216Z,28.50
2023-02-27T12:15:11.836Z,27.40
2023-02-27T12:17:44.002Z,26.90
2023-02-27T12:20:26.345Z,26.80
2023-02-27T12:22:55.878Z,26.90
2023-02-27T12:25:36.008Z,27.00
2023-02-27T12:28:12.999Z,27.10
2023-02-27T12:30:49.179Z,27.90
2023-02-27T12:33:23.122Z,29.40
2023-02-27T12:35:59.047Z,30.80
2023-02-27T12:38:27.156Z,31.80
2023-02-27T12:41:15.868Z,32.50
2023-02-27T12:43:51.414Z,33.30
2023-02-27T12:46:40.760Z,34.00
2023-02-27T12:49:15.792Z,34.20
2023-02-27T12:51:52.964Z,33.20
2023-02-27T12:54:41.553Z,32.30
2023-02-27T12:57:25.385Z,31.60
2023-02-27T13:00:08.410Z,31.50
2023-02-27T13:03:05.207Z,31.00
2023-02-27T13:05:43.005Z,30.50
2023-02-27T13:08:22.790Z,30.60
2023-02-27T13:10:59.037Z,30.50
2023-02-27T13:13:32.508Z,30.10
2023-02-27T13:16:04.170Z,29.80
2023-02-27T13:18:39.975Z,29.50
2023-02-27T13:21:13.631Z,29.30
2023-02-27T13:23:55.614Z,29.10
2023-02-27T13:26:27.783Z,28.90
2023-02-27T13:28:57.798Z,28.70
2023-02-27T13:31:35.358Z,28.90
2023-02-27T13:34:14.293Z,29.60
2023-02-27T13:36:46.855Z,30.30
2023-02-27T13:39:52.880Z,30.80
2023-02-27T13:42:57.180Z,31.30
2023-02-27T13:45:48.479Z,31.90
2023-02-27T13:48:42.114Z,32.30
2023-02-27T13:51:28.272Z,32.40
2023-02-27T13:54:10.211Z,32.70
2023-02-27T13:56:38.373Z,32.60
2023-02-27T13:59:12.499Z,33.00
2023-02-27T14:01:41.108Z,33.20
2023-02-27T14:04:09.507Z,33.20
2023-02-27T14:06:46.768Z,32.60
2023-02-27T14:09:19.988Z,32.10
2023-02-27T14:11:56.070Z,31.70
2023-02-27T14:14:45.558Z,31.50
2023-02-27T14:17:15.083Z,33.40
2023-02-27T14:19:57.200Z,36.20
2023-02-27T14:23:10.166Z,38.40
2023-02-27T14:25:44.802Z,39.90
2023-02-27T14:28:22.265Z,41.00
2023-02-27T14:30:57.372Z,41.80
2023-02-27T14:33:39.708Z,42.30
2023-02-27T14:36:14.895Z,42.50
2023-02-27T14:38:43.007Z,42.40
2023-02-27T14:41:30.876Z,42.40
2023-02-27T14:43:59.977Z,43.00
2023-02-27T14:46:29.863Z,43.80
2023-02-27T14:48:59.313Z,41.40
2023-02-27T14:51:30.440Z,40.20
2023-02-27T14:54:03.661Z,41.20
2023-02-27T14:56:33.676Z,42.40
2023-02-27T14:59:04.569Z,42.50
2023-02-27T15:01:37.473Z,41.90
2023-02-27T15:04:08.110Z,39.80
2023-02-27T15:06:42.731Z,37.90
2023-02-27T15:09:23.630Z,36.30
2023-02-27T15:12:03.475Z,35.40
2023-02-27T15:14:35.319Z,34.70
2023-02-27T15:17:03.925Z,34.80
2023-02-27T15:19:32.280Z,37.00
2023-02-27T15:22:05.201Z,38.70
2023-02-27T15:24:48.883Z,39.80
2023-02-27T15:27:21.569Z,40.50
2023-02-27T15:29:52.003Z,40.70
2023-02-27T15:32:27.472Z,40.40
2023-02-27T15:34:56.561Z,40.60
2023-02-27T15:37:26.348Z,40.80
2023-02-27T15:39:55.455Z,40.80
2023-02-27T15:42:27.127Z,39.70
2023-02-27T15:44:56.302Z,37.80
2023-02-27T15:47:24.954Z,36.20
2023-02-27T15:49:57.294Z,34.90
2023-02-27T15:52:27.252Z,33.90
2023-02-27T15:55:02.131Z,33.30
2023-02-27T15:57:32.660Z,32.70
2023-02-27T16:00:01.855Z,32.40
2023-02-27T16:02:36.001Z,32.40
2023-02-27T16:05:04.178Z,32.50
2023-02-27T16:07:41.350Z,32.60
2023-02-27T16:10:19.726Z,32.70
2023-02-27T16:12:49.317Z,32.70
2023-02-27T16:15:25.888Z,32.60
2023-02-27T16:17:58.911Z,32.50
2023-02-27T16:20:37.335Z,32.50
2023-02-27T16:23:06.623Z,32.30
2023-02-27T16:25:34.941Z,32.20
2023-02-27T16:28:04.668Z,32.10
2023-02-27T16:30:32.825Z,32.00
2023-02-27T16:33:02.547Z,31.90
2023-02-27T16:35:30.915Z,31.50
2023-02-27T16:38:03.583Z,30.50
2023-02-27T16:40:31.736Z,29.90
2023-02-27T16:43:01.400Z,29.60
2023-02-27T16:45:31.938Z,29.40
2023-02-27T16:48:01.497Z,29.10
2023-02-27T16:50:31.451Z,29.00
2023-02-27T16:52:59.534Z,28.70
2023-02-27T16:55:28.310Z,28.60
2023-02-27T16:57:56.383Z,28.40
2023-02-27T17:00:24.534Z,28.30
2023-02-27T17:02:54.141Z,28.10
2023-02-27T17:05:24.209Z,28.00
2023-02-27T17:07:52.248Z,27.80
2023-02-27T17:10:24.579Z,27.70
2023-02-27T17:12:52.717Z,27.50
2023-02-27T17:15:21.128Z,27.40
2023-02-27T17:17:49.203Z,27.30
2023-02-27T17:20:19.134Z,27.20
2023-02-27T17:22:47.245Z,27.10
2023-02-27T17:25:15.699Z,27.00
2023-02-27T17:27:44.520Z,26.80
2023-02-27T17:30:14.261Z,26.70
2023-02-27T17:32:42.353Z,26.60
2023-02-27T17:35:10.887Z,26.50
2023-02-27T17:37:40.345Z,26.40
2023-02-27T17:40:09.643Z,26.40
2023-02-27T17:42:39.225Z,26.30
2023-02-27T17:45:09.080Z,26.20
2023-02-27T17:47:37.450Z,26.10
2023-02-27T17:50:06.752Z,26.00
2023-02-27T17:52:36.574Z,26.00
2023-02-27T17:55:08.600Z,25.90
2023-02-27T17:57:36.838Z,25.90
2023-02-27T18:00:05.877Z,25.80
2023-02-27T18:02:34.032Z,25.80
2023-02-27T18:05:02.232Z,25.60
2023-02-27T18:07:30.285Z,25.50
2023-02-27T18:09:58.390Z,25.50
2023-02-27T18:12:27.903Z,25.50
2023-02-27T18:14:56.309Z,25.40
2023-02-27T18:17:24.458Z,25.30
2023-02-27T18:19:52.514Z,25.30
2023-02-27T18:22:21.794Z,25.20
2023-02-27T18:24:50.032Z,25.20
2023-02-27T18:27:18.119Z,25.10
2023-02-27T18:29:47.552Z,25.10
2023-02-27T18:32:15.661Z,25.10
2023-02-27T18:34:44.463Z,25.00
2023-02-27T18:37:12.767Z,24.90
2023-02-27T18:39:42.212Z,24.90
2023-02-27T18:42:10.293Z,24.80
2023-02-27T18:44:40.719Z,24.80
2023-02-27T18:47:12.083Z,24.80
2023-02-27T18:49:40.145Z,24.70
2023-02-27T18:52:08.295Z,24.70
2023-02-27T18:54:36.486Z,24.60
2023-02-27T18:57:06.060Z,24.50
2023-02-27T18:59:34.123Z,24.50
2023-02-27T19:02:02.310Z,24.40
2023-02-27T19:04:34.395Z,24.50
2023-02-27T19:07:02.497Z,24.40
2023-02-27T19:09:32.778Z,24.40
2023-02-27T19:12:01.293Z,24.30
2023-02-27T19:14:29.386Z,24.20
2023-02-27T19:17:00.409Z,24.20
2023-02-27T19:19:28.933Z,24.20
2023-02-27T19:21:58.397Z,24.20
2023-02-27T19:24:26.581Z,24.20
2023-02-27T19:26:54.693Z,24.10
2023-02-27T19:29:22.818Z,24.00
2023-02-27T19:31:51.660Z,24.00
2023-02-27T19:34:19.740Z,24.00
2023-02-27T19:36:47.823Z,24.00
2023-02-27T19:39:17.247Z,24.00
2023-02-27T19:41:46.110Z,24.00
2023-02-27T19:44:14.199Z,23.90
2023-02-27T19:46:43.486Z,23.80
2023-02-27T19:49:12.160Z,23.70
2023-02-27T19:51:41.497Z,23.60
2023-02-27T19:54:12.842Z,23.50
2023-02-27T19:56:42.919Z,23.50
2023-02-27T19:59:12.675Z,23.50
2023-02-27T20:01:41.500Z,23.40
2023-02-27T20:04:11.101Z,23.40
2023-02-27T20:06:42.856Z,23.30
2023-02-27T20:09:13.297Z,23.30
2023-02-27T20:11:43.502Z,24.00
2023-02-27T20:14:12.250Z,23.70
2023-02-27T20:16:41.557Z,23.20
2023-02-27T20:19:13.110Z,23.50
2023-02-27T20:21:41.552Z,23.20
2023-02-27T20:24:11.238Z,23.50
2023-02-27T20:26:40.746Z,23.10
2023-02-27T20:29:12.700Z,23.00
2023-02-27T20:31:42.504Z,23.50
2023-02-27T20:34:12.272Z,22.70
2023-02-27T20:36:41.039Z,22.90
2023-02-27T20:39:10.199Z,22.60
2023-02-27T20:41:40.222Z,23.10
2023-02-27T20:44:11.646Z,22.80
2023-02-27T20:46:41.432Z,22.80
2023-02-27T20:49:12.005Z,22.60
2023-02-27T20:51:41.396Z,22.80
2023-02-27T20:54:13.457Z,22.70
2023-02-27T20:56:43.334Z,22.50
2023-02-27T20:59:14.077Z,23.00
2023-02-27T21:01:42.704Z,22.60
2023-02-27T21:04:11.136Z,22.70
2023-02-27T21:06:39.287Z,22.40
2023-02-27T21:09:07.913Z,22.30
2023-02-27T21:11:36.022Z,22.50
2023-02-27T21:14:05.901Z,22.20
2023-02-27T21:19:03.734Z,22.50
2023-02-27T21:24:01.649Z,22.80
2023-02-27T21:26:34.869Z,21.60
2023-02-27T21:29:06.009Z,21.80
2023-02-27T21:31:35.688Z,21.80
2023-02-27T21:34:07.969Z,21.90
2023-02-27T21:36:38.249Z,21.80
2023-02-27T21:39:08.273Z,21.90
2023-02-27T21:41:36.335Z,21.80
2023-02-27T21:44:06.891Z,21.80
2023-02-27T21:46:35.888Z,21.70
2023-02-27T21:49:05.721Z,21.70
2023-02-27T21:51:40.591Z,21.70
2023-02-27T21:54:12.687Z,21.60
2023-02-27T21:56:41.600Z,21.60
2023-02-27T21:59:10.269Z,21.50
2023-02-27T22:01:39.201Z,21.50
2023-02-27T22:04:08.834Z,21.40
2023-02-27T22:06:36.974Z,21.20
2023-02-27T22:09:07.985Z,21.00
2023-02-27T22:11:36.876Z,20.90
2023-02-27T22:14:07.022Z,20.90
2023-02-27T22:16:35.386Z,20.90
2023-02-27T22:19:07.589Z,20.70
2023-02-27T22:21:38.630Z,20.70
2023-02-27T22:24:08.484Z,20.90
2023-02-27T22:26:37.070Z,20.00
2023-02-27T22:29:06.621Z,20.70
2023-02-27T22:31:36.521Z,20.30
2023-02-27T22:34:05.554Z,20.50
2023-02-27T22:36:34.678Z,20.40
2023-02-27T22:39:04.702Z,20.10
2023-02-27T22:41:33.507Z,20.20
2023-02-27T22:44:02.998Z,20.00
2023-02-27T22:46:33.149Z,20.10
2023-02-27T22:49:03.639Z,19.60
2023-02-27T22:51:32.714Z,20.10
2023-02-27T22:54:03.926Z,20.10
2023-02-27T22:56:33.437Z,19.50
2023-02-27T23:01:31.874Z,20.20
2023-02-27T23:04:01.684Z,19.70
2023-02-27T23:06:32.006Z,19.90
2023-02-27T23:11:30.295Z,20.50
2023-02-27T23:13:58.299Z,19.60
2023-02-27T23:16:26.806Z,20.00
2023-02-27T23:18:56.840Z,20.00
2023-02-27T23:21:25.632Z,19.60
2023-02-27T23:31:20.835Z,19.80
2023-02-27T23:33:48.926Z,19.60
2023-02-27T23:41:17.588Z,19.70
2023-02-27T23:43:46.152Z,19.50
2023-02-27T23:46:17.079Z,19.30
2023-02-27T23:48:45.298Z,19.20
2023-02-27T23:51:13.410Z,19.50
2023-02-27T23:53:42.989Z,19.40
2023-02-27T23:58:43.913Z,19.50
